sensor_id;sensor_type;location;lat;lon;timestamp;pressure;altitude;pressure_sealevel;temperature;humidity
14067;BME280;7108;42.684;23.350;2022-07-09T00:01:25;95213.75;;;19.31;100.00
14067;BME280;7108;42.684;23.350;2022-07-09T00:03:50;95211.31;;;19.37;100.00
14067;BME280;7108;42.684;23.350;2022-07-09T00:06:20;95223.03;;;19.37;100.00
14067;BME280;7108;42.684;23.350;2022-07-09T00:08:45;95232.44;;;19.36;100.00
14067;BME280;7108;42.684;23.350;2022-07-09T00:11:11;95208.41;;;19.24;100.00
14067;BME280;7108;42.684;23.350;2022-07-09T00:13:36;95226.72;;;19.27;100.00
14067;BME280;7108;42.684;23.350;2022-07-09T00:16:02;95202.84;;;19.02;100.00
14067;BME280;7108;42.684;23.350;2022-07-09T00:18:27;95220.03;;;18.99;100.00
14067;BME280;7108;42.684;23.350;2022-07-09T00:20:54;95210.50;;;18.84;100.00
14067;BME280;7108;42.684;23.350;2022-07-09T00:23:20;95213.56;;;18.89;100.00
14067;BME280;7108;42.684;23.350;2022-07-09T00:25:46;95210.31;;;18.68;100.00
14067;BME280;7108;42.684;23.350;2022-07-09T00:28:11;95200.72;;;18.56;100.00
14067;BME280;7108;42.684;23.350;2022-07-09T00:30:37;95163.16;;;18.38;100.00
14067;BME280;7108;42.684;23.350;2022-07-09T00:33:02;95193.25;;;18.27;100.00
14067;BME280;7108;42.684;23.350;2022-07-09T00:35:28;95204.75;;;18.45;100.00
14067;BME280;7108;42.684;23.350;2022-07-09T00:37:53;95199.34;;;18.42;100.00
14067;BME280;7108;42.684;23.350;2022-07-09T00:40:19;95191.91;;;18.42;100.00
14067;BME280;7108;42.684;23.350;2022-07-09T00:42:44;95202.66;;;18.23;100.00
14067;BME280;7108;42.684;23.350;2022-07-09T00:45:10;95175.50;;;18.09;100.00
14067;BME280;7108;42.684;23.350;2022-07-09T00:47:35;95197.91;;;18.30;100.00
14067;BME280;7108;42.684;23.350;2022-07-09T00:50:01;95150.50;;;18.14;100.00
14067;BME280;7108;42.684;23.350;2022-07-09T00:52:27;95184.13;;;18.41;100.00
14067;BME280;7108;42.684;23.350;2022-07-09T00:54:52;95196.56;;;18.45;100.00
14067;BME280;7108;42.684;23.350;2022-07-09T00:57:19;95167.09;;;18.33;100.00
14067;BME280;7108;42.684;23.350;2022-07-09T00:59:45;95178.72;;;18.37;100.00
14067;BME280;7108;42.684;23.350;2022-07-09T01:02:11;95184.09;;;18.44;100.00
14067;BME280;7108;42.684;23.350;2022-07-09T01:04:36;95189.03;;;18.56;100.00
14067;BME280;7108;42.684;23.350;2022-07-09T01:07:03;95190.44;;;18.67;100.00
14067;BME280;7108;42.684;23.350;2022-07-09T01:09:29;95175.31;;;18.59;100.00
14067;BME280;7108;42.684;23.350;2022-07-09T01:11:56;95178.81;;;18.63;100.00
14067;BME280;7108;42.684;23.350;2022-07-09T01:14:21;95176.63;;;18.48;100.00
14067;BME280;7108;42.684;23.350;2022-07-09T01:16:47;95128.69;;;18.14;100.00
14067;BME280;7108;42.684;23.350;2022-07-09T01:19:21;95161.25;;;18.31;100.00
14067;BME280;7108;42.684;23.350;2022-07-09T01:21:46;95166.13;;;18.46;100.00
14067;BME280;7108;42.684;23.350;2022-07-09T01:24:12;95120.91;;;18.16;100.00
14067;BME280;7108;42.684;23.350;2022-07-09T01:26:37;95156.78;;;18.47;100.00
14067;BME280;7108;42.684;23.350;2022-07-09T01:29:03;95169.50;;;18.57;100.00
14067;BME280;7108;42.684;23.350;2022-07-09T01:31:28;95147.91;;;18.40;100.00
14067;BME280;7108;42.684;23.350;2022-07-09T01:33:54;95177.44;;;18.48;100.00
14067;BME280;7108;42.684;23.350;2022-07-09T01:36:19;95160.31;;;18.44;100.00
14067;BME280;7108;42.684;23.350;2022-07-09T01:38:44;95169.59;;;18.50;100.00
14067;BME280;7108;42.684;23.350;2022-07-09T01:41:10;95158.41;;;18.42;100.00
14067;BME280;7108;42.684;23.350;2022-07-09T01:43:35;95161.19;;;18.38;100.00
14067;BME280;7108;42.684;23.350;2022-07-09T01:46:01;95177.53;;;18.38;100.00
14067;BME280;7108;42.684;23.350;2022-07-09T01:48:28;95168.50;;;18.44;100.00
14067;BME280;7108;42.684;23.350;2022-07-09T01:50:56;95143.72;;;18.32;100.00
14067;BME280;7108;42.684;23.350;2022-07-09T01:53:23;95162.72;;;18.39;100.00
14067;BME280;7108;42.684;23.350;2022-07-09T01:55:49;95144.84;;;18.35;100.00
14067;BME280;7108;42.684;23.350;2022-07-09T01:58:14;95168.03;;;18.49;100.00
14067;BME280;7108;42.684;23.350;2022-07-09T02:00:40;95167.69;;;18.47;100.00
14067;BME280;7108;42.684;23.350;2022-07-09T02:03:05;95159.63;;;18.37;100.00
14067;BME280;7108;42.684;23.350;2022-07-09T02:05:31;95170.91;;;18.39;100.00
14067;BME280;7108;42.684;23.350;2022-07-09T02:07:56;95162.91;;;18.25;100.00
14067;BME280;7108;42.684;23.350;2022-07-09T02:10:22;95169.84;;;18.30;100.00
14067;BME280;7108;42.684;23.350;2022-07-09T02:12:47;95140.09;;;18.05;100.00
14067;BME280;7108;42.684;23.350;2022-07-09T02:15:12;95181.88;;;18.36;100.00
14067;BME280;7108;42.684;23.350;2022-07-09T02:17:38;95178.75;;;18.34;100.00
14067;BME280;7108;42.684;23.350;2022-07-09T02:20:05;95185.25;;;18.46;100.00
14067;BME280;7108;42.684;23.350;2022-07-09T02:22:31;95160.56;;;18.24;100.00
14067;BME280;7108;42.684;23.350;2022-07-09T02:24:56;95173.63;;;18.39;100.00
14067;BME280;7108;42.684;23.350;2022-07-09T02:27:22;95177.28;;;18.29;100.00
14067;BME280;7108;42.684;23.350;2022-07-09T02:29:47;95167.69;;;18.11;100.00
14067;BME280;7108;42.684;23.350;2022-07-09T02:32:13;95180.16;;;18.12;100.00
14067;BME280;7108;42.684;23.350;2022-07-09T02:34:39;95178.97;;;18.13;100.00
14067;BME280;7108;42.684;23.350;2022-07-09T02:37:05;95187.72;;;18.34;100.00
14067;BME280;7108;42.684;23.350;2022-07-09T02:39:31;95175.31;;;18.30;100.00
14067;BME280;7108;42.684;23.350;2022-07-09T02:41:56;95176.47;;;18.29;100.00
14067;BME280;7108;42.684;23.350;2022-07-09T02:44:22;95180.78;;;18.26;100.00
14067;BME280;7108;42.684;23.350;2022-07-09T02:46:47;95184.28;;;18.30;100.00
14067;BME280;7108;42.684;23.350;2022-07-09T02:49:12;95194.75;;;18.35;100.00
14067;BME280;7108;42.684;23.350;2022-07-09T02:51:38;95176.47;;;18.29;100.00
14067;BME280;7108;42.684;23.350;2022-07-09T02:54:04;95186.50;;;18.39;100.00
14067;BME280;7108;42.684;23.350;2022-07-09T02:56:30;95195.00;;;18.44;100.00
14067;BME280;7108;42.684;23.350;2022-07-09T02:58:55;95194.56;;;18.49;100.00
14067;BME280;7108;42.684;23.350;2022-07-09T03:01:21;95180.25;;;18.42;100.00
14067;BME280;7108;42.684;23.350;2022-07-09T03:03:46;95175.50;;;18.45;100.00
14067;BME280;7108;42.684;23.350;2022-07-09T03:06:12;95184.41;;;18.49;100.00
14067;BME280;7108;42.684;23.350;2022-07-09T03:08:38;95197.16;;;18.59;100.00
14067;BME280;7108;42.684;23.350;2022-07-09T03:11:04;95192.50;;;18.60;100.00
14067;BME280;7108;42.684;23.350;2022-07-09T03:13:32;95192.53;;;18.56;100.00
14067;BME280;7108;42.684;23.350;2022-07-09T03:15:58;95199.44;;;18.64;100.00
14067;BME280;7108;42.684;23.350;2022-07-09T03:18:24;95187.38;;;18.62;100.00
14067;BME280;7108;42.684;23.350;2022-07-09T03:20:49;95203.63;;;18.72;100.00
14067;BME280;7108;42.684;23.350;2022-07-09T03:23:16;95197.00;;;18.73;100.00
14067;BME280;7108;42.684;23.350;2022-07-09T03:25:42;95180.88;;;18.52;100.00
14067;BME280;7108;42.684;23.350;2022-07-09T03:28:08;95183.56;;;18.56;100.00
14067;BME280;7108;42.684;23.350;2022-07-09T03:30:34;95185.06;;;18.60;100.00
14067;BME280;7108;42.684;23.350;2022-07-09T03:33:00;95202.94;;;18.65;100.00
14067;BME280;7108;42.684;23.350;2022-07-09T03:35:26;95193.22;;;18.64;100.00
14067;BME280;7108;42.684;23.350;2022-07-09T03:37:51;95197.94;;;18.60;100.00
14067;BME280;7108;42.684;23.350;2022-07-09T03:40:17;95200.72;;;18.56;100.00
14067;BME280;7108;42.684;23.350;2022-07-09T03:42:42;95212.38;;;18.57;100.00
14067;BME280;7108;42.684;23.350;2022-07-09T03:45:08;95195.72;;;18.51;100.00
14067;BME280;7108;42.684;23.350;2022-07-09T03:47:33;95195.63;;;18.58;100.00
14067;BME280;7108;42.684;23.350;2022-07-09T03:49:59;95199.38;;;18.68;100.00
14067;BME280;7108;42.684;23.350;2022-07-09T03:52:24;95184.72;;;18.58;100.00
14067;BME280;7108;42.684;23.350;2022-07-09T03:54:50;95201.28;;;18.74;100.00
14067;BME280;7108;42.684;23.350;2022-07-09T03:57:15;95198.16;;;18.72;100.00
14067;BME280;7108;42.684;23.350;2022-07-09T03:59:41;95204.72;;;18.78;100.00
14067;BME280;7108;42.684;23.350;2022-07-09T04:02:06;95189.22;;;18.72;100.00
14067;BME280;7108;42.684;23.350;2022-07-09T04:04:32;95187.28;;;18.69;100.00
14067;BME280;7108;42.684;23.350;2022-07-09T04:06:58;95190.75;;;18.73;100.00
14067;BME280;7108;42.684;23.350;2022-07-09T04:09:23;95212.81;;;18.85;100.00
14067;BME280;7108;42.684;23.350;2022-07-09T04:11:49;95204.78;;;18.75;100.00
14067;BME280;7108;42.684;23.350;2022-07-09T04:14:14;95157.50;;;18.51;100.00
14067;BME280;7108;42.684;23.350;2022-07-09T04:16:40;95206.66;;;18.78;100.00
14067;BME280;7108;42.684;23.350;2022-07-09T04:19:06;95203.72;;;18.65;100.00
14067;BME280;7108;42.684;23.350;2022-07-09T04:21:32;95219.25;;;18.72;100.00
14067;BME280;7108;42.684;23.350;2022-07-09T04:23:58;95207.00;;;18.53;100.00
14067;BME280;7108;42.684;23.350;2022-07-09T04:26:23;95217.53;;;18.51;100.00
14067;BME280;7108;42.684;23.350;2022-07-09T04:28:49;95214.28;;;18.63;100.00
14067;BME280;7108;42.684;23.350;2022-07-09T04:31:14;95227.47;;;18.68;100.00
14067;BME280;7108;42.684;23.350;2022-07-09T04:33:42;95226.66;;;18.71;100.00
14067;BME280;7108;42.684;23.350;2022-07-09T04:36:08;95212.25;;;18.71;100.00
14067;BME280;7108;42.684;23.350;2022-07-09T04:38:34;95164.88;;;18.18;100.00
14067;BME280;7108;42.684;23.350;2022-07-09T04:40:59;95190.19;;;18.25;100.00
14067;BME280;7108;42.684;23.350;2022-07-09T04:43:24;95205.53;;;18.45;100.00
14067;BME280;7108;42.684;23.350;2022-07-09T04:45:50;95192.69;;;18.42;100.00
14067;BME280;7108;42.684;23.350;2022-07-09T04:48:15;95193.94;;;18.35;100.00
14067;BME280;7108;42.684;23.350;2022-07-09T04:50:41;95199.56;;;18.54;100.00
14067;BME280;7108;42.684;23.350;2022-07-09T04:53:06;95218.88;;;18.70;100.00
14067;BME280;7108;42.684;23.350;2022-07-09T04:55:32;95208.06;;;18.59;100.00
14067;BME280;7108;42.684;23.350;2022-07-09T04:57:57;95203.91;;;18.51;100.00
14067;BME280;7108;42.684;23.350;2022-07-09T05:00:22;95197.28;;;18.49;100.00
14067;BME280;7108;42.684;23.350;2022-07-09T05:02:48;95217.28;;;18.39;100.00
14067;BME280;7108;42.684;23.350;2022-07-09T05:05:14;95222.94;;;18.22;100.00
14067;BME280;7108;42.684;23.350;2022-07-09T05:07:40;95214.34;;;18.23;100.00
14067;BME280;7108;42.684;23.350;2022-07-09T05:10:09;95203.16;;;18.11;100.00
14067;BME280;7108;42.684;23.350;2022-07-09T05:12:34;95189.13;;;18.09;100.00
14067;BME280;7108;42.684;23.350;2022-07-09T05:15:00;95206.19;;;18.20;100.00
14067;BME280;7108;42.684;23.350;2022-07-09T05:17:26;95221.59;;;18.37;100.00
14067;BME280;7108;42.684;23.350;2022-07-09T05:19:51;95226.66;;;18.38;100.00
14067;BME280;7108;42.684;23.350;2022-07-09T05:22:17;95226.44;;;18.22;100.00
14067;BME280;7108;42.684;23.350;2022-07-09T05:24:42;95225.63;;;18.25;100.00
14067;BME280;7108;42.684;23.350;2022-07-09T05:27:08;95223.28;;;18.24;100.00
14067;BME280;7108;42.684;23.350;2022-07-09T05:29:38;95223.66;;;18.26;100.00
14067;BME280;7108;42.684;23.350;2022-07-09T05:32:04;95230.31;;;18.25;100.00
14067;BME280;7108;42.684;23.350;2022-07-09T05:34:29;95234.28;;;18.13;100.00
14067;BME280;7108;42.684;23.350;2022-07-09T05:36:55;95224.16;;;18.14;100.00
14067;BME280;7108;42.684;23.350;2022-07-09T05:39:21;95245.50;;;18.26;100.00
14067;BME280;7108;42.684;23.350;2022-07-09T05:41:47;95249.00;;;18.26;100.00
14067;BME280;7108;42.684;23.350;2022-07-09T05:44:12;95222.59;;;18.13;100.00
14067;BME280;7108;42.684;23.350;2022-07-09T05:46:38;95250.13;;;18.29;100.00
14067;BME280;7108;42.684;23.350;2022-07-09T05:49:03;95233.16;;;18.11;100.00
14067;BME280;7108;42.684;23.350;2022-07-09T05:51:29;95249.38;;;18.28;100.00
14067;BME280;7108;42.684;23.350;2022-07-09T05:53:55;95249.34;;;18.32;100.00
14067;BME280;7108;42.684;23.350;2022-07-09T05:56:20;95259.88;;;18.30;100.00
14067;BME280;7108;42.684;23.350;2022-07-09T05:58:46;95248.25;;;18.22;100.00
14067;BME280;7108;42.684;23.350;2022-07-09T06:01:11;95244.75;;;18.22;100.00
14067;BME280;7108;42.684;23.350;2022-07-09T06:03:38;95250.69;;;18.10;100.00
14067;BME280;7108;42.684;23.350;2022-07-09T06:06:04;95261.63;;;18.06;100.00
14067;BME280;7108;42.684;23.350;2022-07-09T06:08:29;95248.78;;;18.07;100.00
14067;BME280;7108;42.684;23.350;2022-07-09T06:10:57;95244.19;;;17.97;100.00
14067;BME280;7108;42.684;23.350;2022-07-09T06:13:22;95248.84;;;18.00;100.00
14067;BME280;7108;42.684;23.350;2022-07-09T06:15:48;95241.44;;;17.97;100.00
14067;BME280;7108;42.684;23.350;2022-07-09T06:18:13;95235.72;;;17.84;100.00
14067;BME280;7108;42.684;23.350;2022-07-09T06:20:39;95243.09;;;17.91;100.00
14067;BME280;7108;42.684;23.350;2022-07-09T06:23:04;95246.13;;;18.00;100.00
14067;BME280;7108;42.684;23.350;2022-07-09T06:25:30;95267.91;;;18.03;100.00
14067;BME280;7108;42.684;23.350;2022-07-09T06:27:55;95252.44;;;17.90;100.00
14067;BME280;7108;42.684;23.350;2022-07-09T06:30:21;95263.22;;;18.00;100.00
14067;BME280;7108;42.684;23.350;2022-07-09T06:32:46;95231.53;;;17.76;100.00
14067;BME280;7108;42.684;23.350;2022-07-09T06:35:12;95247.84;;;17.80;100.00
14067;BME280;7108;42.684;23.350;2022-07-09T06:37:37;95198.31;;;17.45;100.00
14067;BME280;7108;42.684;23.350;2022-07-09T06:40:04;95255.38;;;17.62;100.00
14067;BME280;7108;42.684;23.350;2022-07-09T06:42:29;95241.88;;;17.48;100.00
14067;BME280;7108;42.684;23.350;2022-07-09T06:44:55;95241.41;;;17.60;100.00
14067;BME280;7108;42.684;23.350;2022-07-09T06:47:21;95269.28;;;17.78;100.00
14067;BME280;7108;42.684;23.350;2022-07-09T06:49:46;95251.78;;;17.75;100.00
14067;BME280;7108;42.684;23.350;2022-07-09T06:52:11;95268.50;;;17.77;100.00
14067;BME280;7108;42.684;23.350;2022-07-09T06:54:37;95260.81;;;17.66;100.00
14067;BME280;7108;42.684;23.350;2022-07-09T06:57:03;95277.44;;;17.78;100.00
14067;BME280;7108;42.684;23.350;2022-07-09T06:59:29;95276.31;;;17.75;100.00
14067;BME280;7108;42.684;23.350;2022-07-09T07:01:54;95258.09;;;17.66;100.00
14067;BME280;7108;42.684;23.350;2022-07-09T07:04:20;95260.00;;;17.69;100.00
14067;BME280;7108;42.684;23.350;2022-07-09T07:06:48;95267.44;;;17.61;100.00
14067;BME280;7108;42.684;23.350;2022-07-09T07:09:15;95277.03;;;17.79;100.00
14067;BME280;7108;42.684;23.350;2022-07-09T07:11:44;95256.16;;;17.63;100.00
14067;BME280;7108;42.684;23.350;2022-07-09T07:14:10;95266.13;;;17.83;100.00
14067;BME280;7108;42.684;23.350;2022-07-09T07:16:36;95267.28;;;17.82;100.00
14067;BME280;7108;42.684;23.350;2022-07-09T07:19:01;95276.94;;;17.93;100.00
14067;BME280;7108;42.684;23.350;2022-07-09T07:21:30;95274.97;;;17.94;100.00
14067;BME280;7108;42.684;23.350;2022-07-09T07:23:55;95248.97;;;17.86;100.00
14067;BME280;7108;42.684;23.350;2022-07-09T07:26:21;95235.03;;;17.73;100.00
14067;BME280;7108;42.684;23.350;2022-07-09T07:28:46;95265.75;;;17.81;100.00
14067;BME280;7108;42.684;23.350;2022-07-09T07:31:12;95258.75;;;17.80;100.00
14067;BME280;7108;42.684;23.350;2022-07-09T07:33:37;95269.50;;;17.97;100.00
14067;BME280;7108;42.684;23.350;2022-07-09T07:36:04;95270.59;;;18.07;100.00
14067;BME280;7108;42.684;23.350;2022-07-09T07:38:29;95265.88;;;18.11;100.00
14067;BME280;7108;42.684;23.350;2022-07-09T07:40:55;95252.22;;;18.14;100.00
14067;BME280;7108;42.684;23.350;2022-07-09T07:43:20;95243.28;;;18.10;100.00
14067;BME280;7108;42.684;23.350;2022-07-09T07:45:46;95269.72;;;18.17;100.00
14067;BME280;7108;42.684;23.350;2022-07-09T07:48:11;95254.13;;;18.17;100.00
14067;BME280;7108;42.684;23.350;2022-07-09T07:50:37;95263.78;;;18.29;100.00
14067;BME280;7108;42.684;23.350;2022-07-09T07:53:05;95277.09;;;18.23;100.00
14067;BME280;7108;42.684;23.350;2022-07-09T07:55:31;95270.47;;;18.17;100.00
14067;BME280;7108;42.684;23.350;2022-07-09T07:57:57;95270.84;;;18.23;100.00
14067;BME280;7108;42.684;23.350;2022-07-09T08:00:23;95271.13;;;18.35;100.00
14067;BME280;7108;42.684;23.350;2022-07-09T08:02:48;95243.47;;;18.33;100.00
14067;BME280;7108;42.684;23.350;2022-07-09T08:05:13;95259.31;;;18.45;100.00
14067;BME280;7108;42.684;23.350;2022-07-09T08:07:39;95259.63;;;18.54;100.00
14067;BME280;7108;42.684;23.350;2022-07-09T08:10:05;95270.56;;;18.50;100.00
14067;BME280;7108;42.684;23.350;2022-07-09T08:12:31;95234.88;;;18.35;100.00
14067;BME280;7108;42.684;23.350;2022-07-09T08:14:56;95262.06;;;18.45;100.00
14067;BME280;7108;42.684;23.350;2022-07-09T08:17:22;95268.19;;;18.56;100.00
14067;BME280;7108;42.684;23.350;2022-07-09T08:19:47;95256.16;;;18.50;100.00
14067;BME280;7108;42.684;23.350;2022-07-09T08:22:13;95239.53;;;18.38;100.00
14067;BME280;7108;42.684;23.350;2022-07-09T08:24:38;95219.88;;;18.13;100.00
14067;BME280;7108;42.684;23.350;2022-07-09T08:27:04;95259.28;;;18.48;100.00
14067;BME280;7108;42.684;23.350;2022-07-09T08:29:29;95251.16;;;18.45;100.00
14067;BME280;7108;42.684;23.350;2022-07-09T08:31:55;95252.16;;;18.58;100.00
14067;BME280;7108;42.684;23.350;2022-07-09T08:34:20;95252.53;;;18.60;100.00
14067;BME280;7108;42.684;23.350;2022-07-09T08:36:46;95272.44;;;18.90;100.00
14067;BME280;7108;42.684;23.350;2022-07-09T08:39:11;95260.69;;;18.93;100.00
14067;BME280;7108;42.684;23.350;2022-07-09T08:41:37;95270.59;;;18.80;100.00
14067;BME280;7108;42.684;23.350;2022-07-09T08:44:04;95282.28;;;18.84;100.00
14067;BME280;7108;42.684;23.350;2022-07-09T08:46:33;95255.94;;;18.67;100.00
14067;BME280;7108;42.684;23.350;2022-07-09T08:48:59;95260.88;;;18.79;100.00
14067;BME280;7108;42.684;23.350;2022-07-09T08:51:25;95254.47;;;18.59;100.00
14067;BME280;7108;42.684;23.350;2022-07-09T08:53:53;95282.31;;;18.81;100.00
14067;BME280;7108;42.684;23.350;2022-07-09T08:56:19;95271.44;;;18.77;100.00
14067;BME280;7108;42.684;23.350;2022-07-09T08:58:44;95274.84;;;18.85;100.00
14067;BME280;7108;42.684;23.350;2022-07-09T09:01:13;95274.47;;;18.83;100.00
14067;BME280;7108;42.684;23.350;2022-07-09T09:03:39;95277.19;;;18.83;100.00
14067;BME280;7108;42.684;23.350;2022-07-09T09:06:07;95284.34;;;18.73;100.00
14067;BME280;7108;42.684;23.350;2022-07-09T09:08:44;95275.00;;;18.74;100.00
14067;BME280;7108;42.684;23.350;2022-07-09T09:11:14;95280.88;;;18.69;100.00
14067;BME280;7108;42.684;23.350;2022-07-09T09:13:46;95254.59;;;18.49;100.00
14067;BME280;7108;42.684;23.350;2022-07-09T09:16:13;95265.53;;;18.49;100.00
14067;BME280;7108;42.684;23.350;2022-07-09T09:18:42;95281.72;;;18.63;100.00
14067;BME280;7108;42.684;23.350;2022-07-09T09:21:09;95269.44;;;18.44;100.00
14067;BME280;7108;42.684;23.350;2022-07-09T09:23:49;95279.81;;;18.60;100.00
14067;BME280;7108;42.684;23.350;2022-07-09T09:26:26;95291.44;;;18.67;100.00
14067;BME280;7108;42.684;23.350;2022-07-09T09:28:53;95276.06;;;18.80;100.00
14067;BME280;7108;42.684;23.350;2022-07-09T09:33:48;95251.59;;;18.73;100.00
14067;BME280;7108;42.684;23.350;2022-07-09T09:36:46;95265.78;;;18.91;100.00
14067;BME280;7108;42.684;23.350;2022-07-09T09:41:40;95277.53;;;19.21;100.00
14067;BME280;7108;42.684;23.350;2022-07-09T09:44:16;95260.41;;;19.17;100.00
14067;BME280;7108;42.684;23.350;2022-07-09T09:46:43;95255.25;;;19.23;100.00
14067;BME280;7108;42.684;23.350;2022-07-09T09:49:11;95240.63;;;19.10;100.00
14067;BME280;7108;42.684;23.350;2022-07-09T09:54:18;95280.38;;;19.67;100.00
14067;BME280;7108;42.684;23.350;2022-07-09T09:56:44;95261.13;;;19.48;100.00
14067;BME280;7108;42.684;23.350;2022-07-09T09:59:13;95276.00;;;19.47;100.00
14067;BME280;7108;42.684;23.350;2022-07-09T10:01:39;95255.13;;;19.33;100.00
14067;BME280;7108;42.684;23.350;2022-07-09T10:04:06;95278.31;;;19.48;100.00
14067;BME280;7108;42.684;23.350;2022-07-09T10:06:35;95272.06;;;19.48;100.00
14067;BME280;7108;42.684;23.350;2022-07-09T10:09:03;95275.38;;;19.36;100.00
14067;BME280;7108;42.684;23.350;2022-07-09T10:11:49;95261.66;;;19.39;100.00
14067;BME280;7108;42.684;23.350;2022-07-09T10:14:30;95261.25;;;19.41;100.00
14067;BME280;7108;42.684;23.350;2022-07-09T10:16:56;95275.00;;;19.60;100.00
14067;BME280;7108;42.684;23.350;2022-07-09T10:21:55;95277.28;;;19.39;100.00
14067;BME280;7108;42.684;23.350;2022-07-09T10:24:26;95275.06;;;19.30;100.00
14067;BME280;7108;42.684;23.350;2022-07-09T10:26:52;95271.78;;;19.42;100.00
14067;BME280;7108;42.684;23.350;2022-07-09T10:29:22;95285.56;;;19.62;100.00
14067;BME280;7108;42.684;23.350;2022-07-09T10:31:48;95284.47;;;19.56;100.00
14067;BME280;7108;42.684;23.350;2022-07-09T10:34:36;95283.06;;;19.71;100.00
14067;BME280;7108;42.684;23.350;2022-07-09T10:37:06;95266.94;;;19.53;100.00
14067;BME280;7108;42.684;23.350;2022-07-09T10:39:33;95291.28;;;19.71;100.00
14067;BME280;7108;42.684;23.350;2022-07-09T10:42:24;95280.72;;;19.43;100.00
14067;BME280;7108;42.684;23.350;2022-07-09T10:44:50;95269.75;;;19.46;100.00
14067;BME280;7108;42.684;23.350;2022-07-09T10:47:16;95285.19;;;19.60;100.00
14067;BME280;7108;42.684;23.350;2022-07-09T10:49:42;95285.03;;;19.44;100.00
14067;BME280;7108;42.684;23.350;2022-07-09T10:52:08;95261.06;;;19.28;100.00
14067;BME280;7108;42.684;23.350;2022-07-09T10:54:45;95290.72;;;19.26;100.00
14067;BME280;7108;42.684;23.350;2022-07-09T10:57:12;95286.91;;;18.87;100.00
14067;BME280;7108;42.684;23.350;2022-07-09T10:59:38;95297.44;;;18.85;100.00
14067;BME280;7108;42.684;23.350;2022-07-09T11:02:04;95290.59;;;18.70;100.00
14067;BME280;7108;42.684;23.350;2022-07-09T11:04:31;95299.69;;;18.60;100.00
14067;BME280;7108;42.684;23.350;2022-07-09T11:06:57;95287.75;;;18.47;100.00
14067;BME280;7108;42.684;23.350;2022-07-09T11:09:25;95287.09;;;18.37;100.00
14067;BME280;7108;42.684;23.350;2022-07-09T11:11:53;95300.81;;;18.26;100.00
14067;BME280;7108;42.684;23.350;2022-07-09T11:14:19;95290.00;;;18.19;100.00
14067;BME280;7108;42.684;23.350;2022-07-09T11:16:53;95308.66;;;18.21;100.00
14067;BME280;7108;42.684;23.350;2022-07-09T11:19:19;95290.84;;;18.06;100.00
14067;BME280;7108;42.684;23.350;2022-07-09T11:21:45;95302.94;;;18.05;100.00
14067;BME280;7108;42.684;23.350;2022-07-09T11:24:16;95298.31;;;18.02;100.00
14067;BME280;7108;42.684;23.350;2022-07-09T11:26:42;95302.69;;;17.85;100.00
14067;BME280;7108;42.684;23.350;2022-07-09T11:29:09;95289.94;;;17.72;100.00
14067;BME280;7108;42.684;23.350;2022-07-09T11:31:47;95284.47;;;17.79;100.00
14067;BME280;7108;42.684;23.350;2022-07-09T11:34:14;95297.66;;;17.84;100.00
14067;BME280;7108;42.684;23.350;2022-07-09T11:36:42;95286.47;;;17.72;100.00
14067;BME280;7108;42.684;23.350;2022-07-09T11:39:09;95278.34;;;17.61;100.00
14067;BME280;7108;42.684;23.350;2022-07-09T11:41:44;95286.06;;;17.70;100.00
14067;BME280;7108;42.684;23.350;2022-07-09T11:44:10;95298.06;;;17.82;100.00
14067;BME280;7108;42.684;23.350;2022-07-09T11:46:39;95299.97;;;17.85;100.00
14067;BME280;7108;42.684;23.350;2022-07-09T11:49:14;95279.84;;;17.73;100.00
14067;BME280;7108;42.684;23.350;2022-07-09T11:51:40;95283.75;;;17.72;100.00
14067;BME280;7108;42.684;23.350;2022-07-09T11:54:06;95306.66;;;17.81;100.00
14067;BME280;7108;42.684;23.350;2022-07-09T11:59:08;95290.28;;;17.81;100.00
14067;BME280;7108;42.684;23.350;2022-07-09T12:01:35;95296.50;;;17.85;100.00
14067;BME280;7108;42.684;23.350;2022-07-09T12:04:01;95269.81;;;17.63;100.00
14067;BME280;7108;42.684;23.350;2022-07-09T12:06:26;95285.34;;;17.66;100.00
14067;BME280;7108;42.684;23.350;2022-07-09T12:08:59;95267.13;;;17.52;100.00
14067;BME280;7108;42.684;23.350;2022-07-09T12:11:29;95271.66;;;17.73;100.00
14067;BME280;7108;42.684;23.350;2022-07-09T12:13:55;95280.09;;;17.88;100.00
14067;BME280;7108;42.684;23.350;2022-07-09T12:16:21;95278.81;;;18.03;100.00
14067;BME280;7108;42.684;23.350;2022-07-09T12:18:46;95254.66;;;18.02;100.00
14067;BME280;7108;42.684;23.350;2022-07-09T12:21:12;95268.84;;;18.30;100.00
14067;BME280;7108;42.684;23.350;2022-07-09T12:23:37;95264.66;;;18.19;100.00
14067;BME280;7108;42.684;23.350;2022-07-09T12:26:02;95281.00;;;18.22;100.00
14067;BME280;7108;42.684;23.350;2022-07-09T12:28:28;95271.59;;;18.27;100.00
14067;BME280;7108;42.684;23.350;2022-07-09T12:30:53;95268.75;;;18.37;100.00
14067;BME280;7108;42.684;23.350;2022-07-09T12:33:19;95280.34;;;18.48;100.00
14067;BME280;7108;42.684;23.350;2022-07-09T12:35:44;95242.34;;;18.27;100.00
14067;BME280;7108;42.684;23.350;2022-07-09T12:38:10;95282.31;;;18.47;100.00
14067;BME280;7108;42.684;23.350;2022-07-09T12:40:35;95255.56;;;18.32;100.00
14067;BME280;7108;42.684;23.350;2022-07-09T12:43:03;95245.88;;;18.28;100.00
14067;BME280;7108;42.684;23.350;2022-07-09T12:45:28;95264.44;;;18.40;100.00
14067;BME280;7108;42.684;23.350;2022-07-09T12:47:54;95257.53;;;18.32;100.00
14067;BME280;7108;42.684;23.350;2022-07-09T12:50:19;95247.13;;;18.20;100.00
14067;BME280;7108;42.684;23.350;2022-07-09T12:52:45;95261.34;;;18.38;100.00
14067;BME280;7108;42.684;23.350;2022-07-09T12:55:10;95269.91;;;18.40;100.00
14067;BME280;7108;42.684;23.350;2022-07-09T12:57:36;95267.25;;;18.33;100.00
14067;BME280;7108;42.684;23.350;2022-07-09T13:00:04;95252.84;;;18.29;100.00